sensor_id;sensor_type;location;lat;lon;timestamp;P1;durP1;ratioP1;P2;durP2;ratioP2
51459;SDS011;37534;39.772;2.718;2023-04-24T00:01:39;2.90;;;1.38;;
51459;SDS011;37534;39.772;2.718;2023-04-24T00:04:05;2.17;;;1.42;;
51459;SDS011;37534;39.772;2.718;2023-04-24T00:06:32;6.65;;;1.40;;
51459;SDS011;37534;39.772;2.718;2023-04-24T00:09:02;4.25;;;1.35;;
51459;SDS011;37534;39.772;2.718;2023-04-24T00:11:28;2.10;;;1.30;;
51459;SDS011;37534;39.772;2.718;2023-04-24T00:13:55;2.67;;;1.13;;
51459;SDS011;37534;39.772;2.718;2023-04-24T00:16:22;4.20;;;1.60;;
51459;SDS011;37534;39.772;2.718;2023-04-24T00:18:48;3.55;;;1.73;;
51459;SDS011;37534;39.772;2.718;2023-04-24T00:21:14;3.30;;;2.17;;
51459;SDS011;37534;39.772;2.718;2023-04-24T00:23:42;2.00;;;1.80;;
51459;SDS011;37534;39.772;2.718;2023-04-24T00:26:08;3.30;;;2.13;;
51459;SDS011;37534;39.772;2.718;2023-04-24T00:28:34;2.63;;;1.58;;
51459;SDS011;37534;39.772;2.718;2023-04-24T00:31:00;1.33;;;1.23;;
51459;SDS011;37534;39.772;2.718;2023-04-24T00:33:25;3.65;;;1.67;;
51459;SDS011;37534;39.772;2.718;2023-04-24T00:35:51;3.03;;;2.13;;
51459;SDS011;37534;39.772;2.718;2023-04-24T00:38:17;3.20;;;1.92;;
51459;SDS011;37534;39.772;2.718;2023-04-24T00:40:43;5.75;;;2.33;;
51459;SDS011;37534;39.772;2.718;2023-04-24T00:43:09;2.35;;;1.50;;
51459;SDS011;37534;39.772;2.718;2023-04-24T00:45:35;3.15;;;1.95;;
51459;SDS011;37534;39.772;2.718;2023-04-24T00:48:01;5.68;;;1.85;;
51459;SDS011;37534;39.772;2.718;2023-04-24T00:50:27;2.13;;;1.55;;
51459;SDS011;37534;39.772;2.718;2023-04-24T00:52:53;24.05;;;2.90;;
51459;SDS011;37534;39.772;2.718;2023-04-24T00:55:19;1.80;;;1.70;;
51459;SDS011;37534;39.772;2.718;2023-04-24T00:57:45;2.15;;;1.88;;
51459;SDS011;37534;39.772;2.718;2023-04-24T01:00:12;1.90;;;1.40;;
51459;SDS011;37534;39.772;2.718;2023-04-24T01:02:40;2.05;;;1.60;;
51459;SDS011;37534;39.772;2.718;2023-04-24T01:05:14;2.90;;;1.85;;
51459;SDS011;37534;39.772;2.718;2023-04-24T01:07:40;1.70;;;1.35;;
51459;SDS011;37534;39.772;2.718;2023-04-24T01:10:10;2.05;;;1.77;;
51459;SDS011;37534;39.772;2.718;2023-04-24T01:12:37;1.80;;;1.58;;
51459;SDS011;37534;39.772;2.718;2023-04-24T01:15:02;3.47;;;1.88;;
51459;SDS011;37534;39.772;2.718;2023-04-24T01:17:29;4.32;;;1.50;;
51459;SDS011;37534;39.772;2.718;2023-04-24T01:19:54;3.00;;;2.08;;
51459;SDS011;37534;39.772;2.718;2023-04-24T01:22:22;4.90;;;2.42;;
51459;SDS011;37534;39.772;2.718;2023-04-24T01:24:47;9.23;;;2.13;;
51459;SDS011;37534;39.772;2.718;2023-04-24T01:27:13;1.50;;;1.27;;
51459;SDS011;37534;39.772;2.718;2023-04-24T01:29:39;4.68;;;2.10;;
51459;SDS011;37534;39.772;2.718;2023-04-24T01:32:06;2.50;;;1.60;;
51459;SDS011;37534;39.772;2.718;2023-04-24T01:34:32;4.50;;;1.77;;
51459;SDS011;37534;39.772;2.718;2023-04-24T01:36:58;3.33;;;2.28;;
51459;SDS011;37534;39.772;2.718;2023-04-24T01:39:24;2.70;;;2.22;;
51459;SDS011;37534;39.772;2.718;2023-04-24T01:41:51;1.95;;;1.80;;
51459;SDS011;37534;39.772;2.718;2023-04-24T01:44:17;2.38;;;1.77;;
51459;SDS011;37534;39.772;2.718;2023-04-24T01:46:43;2.55;;;1.70;;
51459;SDS011;37534;39.772;2.718;2023-04-24T01:49:09;5.43;;;1.92;;
51459;SDS011;37534;39.772;2.718;2023-04-24T01:51:35;5.63;;;1.92;;
51459;SDS011;37534;39.772;2.718;2023-04-24T01:54:01;4.32;;;1.80;;
51459;SDS011;37534;39.772;2.718;2023-04-24T01:56:28;2.20;;;2.00;;
51459;SDS011;37534;39.772;2.718;2023-04-24T01:58:57;3.03;;;1.77;;
51459;SDS011;37534;39.772;2.718;2023-04-24T02:01:24;2.08;;;1.90;;
51459;SDS011;37534;39.772;2.718;2023-04-24T02:03:50;4.28;;;2.65;;
51459;SDS011;37534;39.772;2.718;2023-04-24T02:06:16;2.40;;;1.85;;
51459;SDS011;37534;39.772;2.718;2023-04-24T02:08:41;2.65;;;1.83;;
51459;SDS011;37534;39.772;2.718;2023-04-24T02:11:10;2.83;;;2.00;;
51459;SDS011;37534;39.772;2.718;2023-04-24T02:13:36;7.82;;;2.05;;
51459;SDS011;37534;39.772;2.718;2023-04-24T02:16:01;2.60;;;2.25;;
51459;SDS011;37534;39.772;2.718;2023-04-24T02:18:27;3.10;;;2.10;;
51459;SDS011;37534;39.772;2.718;2023-04-24T02:20:53;2.05;;;1.88;;
51459;SDS011;37534;39.772;2.718;2023-04-24T02:23:21;3.55;;;2.17;;
51459;SDS011;37534;39.772;2.718;2023-04-24T02:25:47;4.63;;;2.10;;
51459;SDS011;37534;39.772;2.718;2023-04-24T02:28:12;3.60;;;2.08;;
51459;SDS011;37534;39.772;2.718;2023-04-24T02:30:38;3.03;;;2.53;;
51459;SDS011;37534;39.772;2.718;2023-04-24T02:33:06;5.25;;;2.63;;
51459;SDS011;37534;39.772;2.718;2023-04-24T02:35:32;2.63;;;2.40;;
51459;SDS011;37534;39.772;2.718;2023-04-24T02:37:57;5.47;;;2.47;;
51459;SDS011;37534;39.772;2.718;2023-04-24T02:40:23;3.38;;;2.53;;
51459;SDS011;37534;39.772;2.718;2023-04-24T02:42:48;3.60;;;2.50;;
51459;SDS011;37534;39.772;2.718;2023-04-24T02:45:14;2.40;;;1.70;;
51459;SDS011;37534;39.772;2.718;2023-04-24T02:47:39;3.47;;;2.13;;
51459;SDS011;37534;39.772;2.718;2023-04-24T02:50:05;7.57;;;2.55;;
51459;SDS011;37534;39.772;2.718;2023-04-24T02:52:31;3.28;;;2.47;;
51459;SDS011;37534;39.772;2.718;2023-04-24T02:54:57;7.15;;;2.53;;
51459;SDS011;37534;39.772;2.718;2023-04-24T02:57:22;3.28;;;2.10;;
51459;SDS011;37534;39.772;2.718;2023-04-24T02:59:48;3.10;;;2.60;;
51459;SDS011;37534;39.772;2.718;2023-04-24T03:02:13;3.45;;;2.55;;
51459;SDS011;37534;39.772;2.718;2023-04-24T03:04:39;2.75;;;2.47;;
51459;SDS011;37534;39.772;2.718;2023-04-24T03:07:07;4.13;;;2.38;;
51459;SDS011;37534;39.772;2.718;2023-04-24T03:09:33;2.45;;;2.00;;
51459;SDS011;37534;39.772;2.718;2023-04-24T03:11:59;2.60;;;2.42;;
51459;SDS011;37534;39.772;2.718;2023-04-24T03:14:25;7.65;;;2.13;;
51459;SDS011;37534;39.772;2.718;2023-04-24T03:16:50;8.10;;;2.35;;
51459;SDS011;37534;39.772;2.718;2023-04-24T03:19:16;4.63;;;2.42;;
51459;SDS011;37534;39.772;2.718;2023-04-24T03:21:42;6.63;;;2.17;;
51459;SDS011;37534;39.772;2.718;2023-04-24T03:24:07;1.63;;;1.52;;
51459;SDS011;37534;39.772;2.718;2023-04-24T03:26:34;4.15;;;2.13;;
51459;SDS011;37534;39.772;2.718;2023-04-24T03:29:00;3.30;;;2.35;;
51459;SDS011;37534;39.772;2.718;2023-04-24T03:31:25;2.30;;;2.05;;
51459;SDS011;37534;39.772;2.718;2023-04-24T03:33:51;2.42;;;1.30;;
51459;SDS011;37534;39.772;2.718;2023-04-24T03:36:16;2.35;;;1.77;;
51459;SDS011;37534;39.772;2.718;2023-04-24T03:38:44;3.13;;;2.03;;
51459;SDS011;37534;39.772;2.718;2023-04-24T03:41:10;2.60;;;2.20;;
51459;SDS011;37534;39.772;2.718;2023-04-24T03:43:35;3.38;;;2.13;;
51459;SDS011;37534;39.772;2.718;2023-04-24T03:46:01;2.45;;;2.03;;
51459;SDS011;37534;39.772;2.718;2023-04-24T03:48:27;4.47;;;2.50;;
51459;SDS011;37534;39.772;2.718;2023-04-24T03:50:52;4.20;;;2.17;;
51459;SDS011;37534;39.772;2.718;2023-04-24T03:53:18;4.18;;;2.63;;
51459;SDS011;37534;39.772;2.718;2023-04-24T03:55:44;4.35;;;2.40;;
51459;SDS011;37534;39.772;2.718;2023-04-24T03:58:10;5.90;;;2.08;;
51459;SDS011;37534;39.772;2.718;2023-04-24T04:00:36;7.70;;;3.28;;
51459;SDS011;37534;39.772;2.718;2023-04-24T04:03:02;13.35;;;3.75;;
51459;SDS011;37534;39.772;2.718;2023-04-24T04:05:28;2.95;;;2.22;;
51459;SDS011;37534;39.772;2.718;2023-04-24T04:07:54;3.42;;;2.33;;
51459;SDS011;37534;39.772;2.718;2023-04-24T04:10:20;4.82;;;2.95;;
51459;SDS011;37534;39.772;2.718;2023-04-24T04:12:45;2.47;;;2.28;;
51459;SDS011;37534;39.772;2.718;2023-04-24T04:15:11;3.58;;;2.92;;
51459;SDS011;37534;39.772;2.718;2023-04-24T04:17:36;2.92;;;2.42;;
51459;SDS011;37534;39.772;2.718;2023-04-24T04:20:03;5.07;;;2.47;;
51459;SDS011;37534;39.772;2.718;2023-04-24T04:22:33;2.20;;;2.00;;
51459;SDS011;37534;39.772;2.718;2023-04-24T04:24:59;3.00;;;2.13;;
51459;SDS011;37534;39.772;2.718;2023-04-24T04:27:24;2.70;;;2.05;;
51459;SDS011;37534;39.772;2.718;2023-04-24T04:29:52;4.65;;;2.88;;
51459;SDS011;37534;39.772;2.718;2023-04-24T04:32:17;3.00;;;2.63;;
51459;SDS011;37534;39.772;2.718;2023-04-24T04:34:43;6.15;;;2.78;;
51459;SDS011;37534;39.772;2.718;2023-04-24T04:37:10;3.58;;;1.65;;
51459;SDS011;37534;39.772;2.718;2023-04-24T04:39:37;3.58;;;1.85;;
51459;SDS011;37534;39.772;2.718;2023-04-24T04:42:03;4.10;;;2.15;;
51459;SDS011;37534;39.772;2.718;2023-04-24T04:44:29;2.63;;;2.42;;
51459;SDS011;37534;39.772;2.718;2023-04-24T04:46:55;2.15;;;1.95;;
51459;SDS011;37534;39.772;2.718;2023-04-24T04:49:22;4.32;;;2.03;;
51459;SDS011;37534;39.772;2.718;2023-04-24T04:51:48;2.85;;;2.30;;
51459;SDS011;37534;39.772;2.718;2023-04-24T04:54:15;2.83;;;1.80;;
51459;SDS011;37534;39.772;2.718;2023-04-24T04:56:41;1.98;;;1.73;;
51459;SDS011;37534;39.772;2.718;2023-04-24T04:59:07;2.85;;;1.65;;
51459;SDS011;37534;39.772;2.718;2023-04-24T05:01:32;10.27;;;2.33;;
51459;SDS011;37534;39.772;2.718;2023-04-24T05:03:58;3.03;;;2.40;;
51459;SDS011;37534;39.772;2.718;2023-04-24T05:06:24;3.83;;;2.40;;
51459;SDS011;37534;39.772;2.718;2023-04-24T05:08:50;4.47;;;2.42;;
51459;SDS011;37534;39.772;2.718;2023-04-24T05:11:16;2.95;;;2.45;;
51459;SDS011;37534;39.772;2.718;2023-04-24T05:13:42;6.40;;;2.42;;
51459;SDS011;37534;39.772;2.718;2023-04-24T05:16:07;4.10;;;2.63;;
51459;SDS011;37534;39.772;2.718;2023-04-24T05:18:33;5.70;;;2.35;;
51459;SDS011;37534;39.772;2.718;2023-04-24T05:20:58;2.22;;;2.00;;
51459;SDS011;37534;39.772;2.718;2023-04-24T05:23:24;4.25;;;2.10;;
51459;SDS011;37534;39.772;2.718;2023-04-24T05:25:49;2.78;;;2.40;;
51459;SDS011;37534;39.772;2.718;2023-04-24T05:28:15;2.92;;;1.90;;
51459;SDS011;37534;39.772;2.718;2023-04-24T05:30:41;3.80;;;1.92;;
51459;SDS011;37534;39.772;2.718;2023-04-24T05:33:06;3.63;;;2.13;;
51459;SDS011;37534;39.772;2.718;2023-04-24T05:35:33;2.72;;;2.15;;
51459;SDS011;37534;39.772;2.718;2023-04-24T05:37:59;4.07;;;2.00;;
51459;SDS011;37534;39.772;2.718;2023-04-24T05:40:24;4.88;;;2.15;;
51459;SDS011;37534;39.772;2.718;2023-04-24T05:42:50;3.38;;;2.60;;
51459;SDS011;37534;39.772;2.718;2023-04-24T05:45:15;4.90;;;2.90;;
51459;SDS011;37534;39.772;2.718;2023-04-24T05:47:42;5.13;;;2.60;;
51459;SDS011;37534;39.772;2.718;2023-04-24T05:50:09;2.85;;;2.05;;
51459;SDS011;37534;39.772;2.718;2023-04-24T05:52:35;8.38;;;2.42;;
51459;SDS011;37534;39.772;2.718;2023-04-24T05:55:00;9.70;;;2.90;;
51459;SDS011;37534;39.772;2.718;2023-04-24T05:57:26;2.67;;;1.98;;
51459;SDS011;37534;39.772;2.718;2023-04-24T05:59:52;9.90;;;2.20;;
51459;SDS011;37534;39.772;2.718;2023-04-24T06:02:17;2.28;;;1.83;;
51459;SDS011;37534;39.772;2.718;2023-04-24T06:04:43;2.92;;;1.55;;
51459;SDS011;37534;39.772;2.718;2023-04-24T06:07:10;2.80;;;1.63;;
51459;SDS011;37534;39.772;2.718;2023-04-24T06:09:36;5.75;;;2.08;;
51459;SDS011;37534;39.772;2.718;2023-04-24T06:12:02;8.52;;;2.10;;
51459;SDS011;37534;39.772;2.718;2023-04-24T06:14:28;3.92;;;2.15;;
51459;SDS011;37534;39.772;2.718;2023-04-24T06:16:53;7.13;;;3.28;;
51459;SDS011;37534;39.772;2.718;2023-04-24T06:19:19;2.67;;;2.20;;
51459;SDS011;37534;39.772;2.718;2023-04-24T06:21:44;6.75;;;2.30;;
51459;SDS011;37534;39.772;2.718;2023-04-24T06:24:10;2.90;;;2.15;;
51459;SDS011;37534;39.772;2.718;2023-04-24T06:26:35;4.38;;;3.03;;
51459;SDS011;37534;39.772;2.718;2023-04-24T06:29:01;5.65;;;2.58;;
51459;SDS011;37534;39.772;2.718;2023-04-24T06:31:27;10.82;;;3.28;;
51459;SDS011;37534;39.772;2.718;2023-04-24T06:33:52;4.38;;;2.40;;
51459;SDS011;37534;39.772;2.718;2023-04-24T06:36:19;4.55;;;2.25;;
51459;SDS011;37534;39.772;2.718;2023-04-24T06:38:44;9.00;;;3.13;;
51459;SDS011;37534;39.772;2.718;2023-04-24T06:41:10;2.97;;;2.17;;
51459;SDS011;37534;39.772;2.718;2023-04-24T06:43:36;4.28;;;2.67;;
51459;SDS011;37534;39.772;2.718;2023-04-24T06:46:01;2.70;;;2.13;;
51459;SDS011;37534;39.772;2.718;2023-04-24T06:48:28;4.25;;;2.10;;
51459;SDS011;37534;39.772;2.718;2023-04-24T06:50:54;26.48;;;2.22;;
51459;SDS011;37534;39.772;2.718;2023-04-24T06:53:20;4.03;;;1.85;;
51459;SDS011;37534;39.772;2.718;2023-04-24T06:55:45;1.42;;;1.23;;
51459;SDS011;37534;39.772;2.718;2023-04-24T06:58:11;15.80;;;2.13;;
51459;SDS011;37534;39.772;2.718;2023-04-24T07:00:37;5.78;;;2.20;;
51459;SDS011;37534;39.772;2.718;2023-04-24T07:03:03;2.15;;;1.73;;
51459;SDS011;37534;39.772;2.718;2023-04-24T07:05:32;9.70;;;1.77;;
51459;SDS011;37534;39.772;2.718;2023-04-24T07:08:00;5.13;;;2.03;;
51459;SDS011;37534;39.772;2.718;2023-04-24T07:10:26;4.85;;;2.17;;
51459;SDS011;37534;39.772;2.718;2023-04-24T07:12:53;7.38;;;2.45;;
51459;SDS011;37534;39.772;2.718;2023-04-24T07:15:19;3.17;;;2.05;;
51459;SDS011;37534;39.772;2.718;2023-04-24T07:17:44;3.35;;;3.13;;
51459;SDS011;37534;39.772;2.718;2023-04-24T07:20:10;10.65;;;3.90;;
51459;SDS011;37534;39.772;2.718;2023-04-24T07:22:39;6.57;;;4.22;;
51459;SDS011;37534;39.772;2.718;2023-04-24T07:25:05;5.28;;;4.03;;
51459;SDS011;37534;39.772;2.718;2023-04-24T07:27:32;5.80;;;3.60;;
51459;SDS011;37534;39.772;2.718;2023-04-24T07:29:58;5.35;;;3.80;;
51459;SDS011;37534;39.772;2.718;2023-04-24T07:32:24;12.95;;;8.90;;
51459;SDS011;37534;39.772;2.718;2023-04-24T07:34:49;25.52;;;20.13;;
51459;SDS011;37534;39.772;2.718;2023-04-24T07:37:15;19.60;;;12.93;;
51459;SDS011;37534;39.772;2.718;2023-04-24T07:39:40;9.35;;;4.75;;
51459;SDS011;37534;39.772;2.718;2023-04-24T07:42:06;5.75;;;4.10;;
51459;SDS011;37534;39.772;2.718;2023-04-24T07:44:31;8.85;;;6.43;;
51459;SDS011;37534;39.772;2.718;2023-04-24T07:46:57;11.27;;;6.05;;
51459;SDS011;37534;39.772;2.718;2023-04-24T07:49:23;5.55;;;4.40;;
51459;SDS011;37534;39.772;2.718;2023-04-24T07:51:48;5.45;;;4.53;;
51459;SDS011;37534;39.772;2.718;2023-04-24T07:54:15;8.38;;;5.25;;
51459;SDS011;37534;39.772;2.718;2023-04-24T07:56:41;10.35;;;4.43;;
51459;SDS011;37534;39.772;2.718;2023-04-24T07:59:08;3.80;;;2.25;;
51459;SDS011;37534;39.772;2.718;2023-04-24T08:01:35;3.75;;;2.30;;
51459;SDS011;37534;39.772;2.718;2023-04-24T08:04:00;8.32;;;3.30;;
51459;SDS011;37534;39.772;2.718;2023-04-24T08:06:26;3.38;;;2.28;;
51459;SDS011;37534;39.772;2.718;2023-04-24T08:08:55;5.63;;;3.25;;
51459;SDS011;37534;39.772;2.718;2023-04-24T08:11:21;4.85;;;2.40;;
51459;SDS011;37534;39.772;2.718;2023-04-24T08:13:47;16.80;;;2.92;;
51459;SDS011;37534;39.772;2.718;2023-04-24T08:16:12;7.00;;;3.28;;
51459;SDS011;37534;39.772;2.718;2023-04-24T08:18:38;10.18;;;3.53;;
51459;SDS011;37534;39.772;2.718;2023-04-24T08:21:03;8.95;;;3.10;;
51459;SDS011;37534;39.772;2.718;2023-04-24T08:23:29;5.47;;;2.72;;
51459;SDS011;37534;39.772;2.718;2023-04-24T08:25:55;5.03;;;2.72;;
51459;SDS011;37534;39.772;2.718;2023-04-24T08:28:21;3.85;;;2.08;;
51459;SDS011;37534;39.772;2.718;2023-04-24T08:30:47;4.32;;;2.72;;
51459;SDS011;37534;39.772;2.718;2023-04-24T08:33:13;6.97;;;2.90;;
51459;SDS011;37534;39.772;2.718;2023-04-24T08:35:39;8.35;;;3.20;;
51459;SDS011;37534;39.772;2.718;2023-04-24T08:38:05;5.72;;;2.97;;
51459;SDS011;37534;39.772;2.718;2023-04-24T08:40:30;12.07;;;2.60;;
51459;SDS011;37534;39.772;2.718;2023-04-24T08:43:00;10.73;;;3.38;;
51459;SDS011;37534;39.772;2.718;2023-04-24T08:45:26;8.18;;;3.70;;
51459;SDS011;37534;39.772;2.718;2023-04-24T08:47:52;4.95;;;3.05;;
51459;SDS011;37534;39.772;2.718;2023-04-24T08:50:19;8.52;;;2.65;;
51459;SDS011;37534;39.772;2.718;2023-04-24T08:52:45;7.90;;;3.20;;
51459;SDS011;37534;39.772;2.718;2023-04-24T08:55:14;6.75;;;3.05;;
51459;SDS011;37534;39.772;2.718;2023-04-24T08:57:43;4.80;;;2.83;;
51459;SDS011;37534;39.772;2.718;2023-04-24T09:00:10;10.27;;;3.67;;
51459;SDS011;37534;39.772;2.718;2023-04-24T09:02:39;5.75;;;2.90;;
51459;SDS011;37534;39.772;2.718;2023-04-24T09:05:08;4.40;;;2.67;;
51459;SDS011;37534;39.772;2.718;2023-04-24T09:07:35;6.25;;;2.67;;
51459;SDS011;37534;39.772;2.718;2023-04-24T09:10:03;3.08;;;2.42;;
51459;SDS011;37534;39.772;2.718;2023-04-24T09:12:29;4.35;;;2.65;;
51459;SDS011;37534;39.772;2.718;2023-04-24T09:14:55;4.35;;;2.17;;
51459;SDS011;37534;39.772;2.718;2023-04-24T09:17:22;14.60;;;2.65;;
51459;SDS011;37534;39.772;2.718;2023-04-24T09:19:48;4.97;;;3.08;;
51459;SDS011;37534;39.772;2.718;2023-04-24T09:22:14;5.00;;;2.65;;
51459;SDS011;37534;39.772;2.718;2023-04-24T09:24:40;5.50;;;2.90;;
51459;SDS011;37534;39.772;2.718;2023-04-24T09:27:06;7.20;;;2.97;;
51459;SDS011;37534;39.772;2.718;2023-04-24T09:29:32;4.13;;;1.95;;
51459;SDS011;37534;39.772;2.718;2023-04-24T09:31:58;5.88;;;2.83;;
51459;SDS011;37534;39.772;2.718;2023-04-24T09:34:24;5.45;;;2.92;;
51459;SDS011;37534;39.772;2.718;2023-04-24T09:36:51;4.75;;;2.85;;
51459;SDS011;37534;39.772;2.718;2023-04-24T09:39:17;4.68;;;2.35;;
51459;SDS011;37534;39.772;2.718;2023-04-24T09:41:50;3.85;;;2.25;;
51459;SDS011;37534;39.772;2.718;2023-04-24T09:44:22;6.70;;;2.75;;
51459;SDS011;37534;39.772;2.718;2023-04-24T09:46:50;5.38;;;2.42;;
51459;SDS011;37534;39.772;2.718;2023-04-24T09:49:22;5.72;;;3.80;;
51459;SDS011;37534;39.772;2.718;2023-04-24T09:51:50;7.93;;;2.85;;
51459;SDS011;37534;39.772;2.718;2023-04-24T09:54:17;4.40;;;2.47;;
51459;SDS011;37534;39.772;2.718;2023-04-24T09:56:45;13.18;;;3.92;;
51459;SDS011;37534;39.772;2.718;2023-04-24T09:59:13;5.72;;;3.08;;
51459;SDS011;37534;39.772;2.718;2023-04-24T10:01:40;2.95;;;2.40;;
51459;SDS011;37534;39.772;2.718;2023-04-24T10:04:28;7.05;;;2.63;;
51459;SDS011;37534;39.772;2.718;2023-04-24T10:06:54;7.40;;;3.17;;
51459;SDS011;37534;39.772;2.718;2023-04-24T10:09:23;6.82;;;4.70;;
51459;SDS011;37534;39.772;2.718;2023-04-24T10:11:50;4.50;;;3.38;;
51459;SDS011;37534;39.772;2.718;2023-04-24T10:14:22;11.43;;;6.50;;
51459;SDS011;37534;39.772;2.718;2023-04-24T10:16:48;8.90;;;3.28;;
51459;SDS011;37534;39.772;2.718;2023-04-24T10:19:15;8.15;;;4.47;;
51459;SDS011;37534;39.772;2.718;2023-04-24T10:21:43;41.22;;;29.67;;
51459;SDS011;37534;39.772;2.718;2023-04-24T10:24:17;15.20;;;6.60;;
51459;SDS011;37534;39.772;2.718;2023-04-24T10:26:45;12.52;;;5.13;;
51459;SDS011;37534;39.772;2.718;2023-04-24T10:29:14;57.85;;;34.42;;
51459;SDS011;37534;39.772;2.718;2023-04-24T10:31:42;27.48;;;14.35;;
51459;SDS011;37534;39.772;2.718;2023-04-24T10:34:10;33.22;;;17.27;;
51459;SDS011;37534;39.772;2.718;2023-04-24T10:36:37;14.05;;;5.13;;
51459;SDS011;37534;39.772;2.718;2023-04-24T10:39:07;24.60;;;12.75;;
51459;SDS011;37534;39.772;2.718;2023-04-24T10:41:39;16.30;;;10.82;;
51459;SDS011;37534;39.772;2.718;2023-04-24T10:44:08;27.15;;;13.18;;
51459;SDS011;37534;39.772;2.718;2023-04-24T10:46:39;50.50;;;23.42;;
51459;SDS011;37534;39.772;2.718;2023-04-24T10:49:08;39.10;;;20.50;;
51459;SDS011;37534;39.772;2.718;2023-04-24T10:51:50;32.53;;;17.63;;
51459;SDS011;37534;39.772;2.718;2023-04-24T10:54:40;62.00;;;41.03;;
51459;SDS011;37534;39.772;2.718;2023-04-24T10:57:28;137.75;;;89.75;;
51459;SDS011;37534;39.772;2.718;2023-04-24T11:02:40;82.50;;;45.33;;
51459;SDS011;37534;39.772;2.718;2023-04-24T11:05:14;26.50;;;14.95;;
51459;SDS011;37534;39.772;2.718;2023-04-24T11:10:44;22.17;;;11.25;;
51459;SDS011;37534;39.772;2.718;2023-04-24T11:13:15;12.83;;;6.97;;
51459;SDS011;37534;39.772;2.718;2023-04-24T11:15:53;48.65;;;28.42;;
51459;SDS011;37534;39.772;2.718;2023-04-24T11:18:39;21.80;;;9.52;;
51459;SDS011;37534;39.772;2.718;2023-04-24T11:21:16;15.65;;;8.52;;
51459;SDS011;37534;39.772;2.718;2023-04-24T11:23:42;37.95;;;24.35;;
51459;SDS011;37534;39.772;2.718;2023-04-24T11:26:12;12.85;;;5.53;;
51459;SDS011;37534;39.772;2.718;2023-04-24T11:28:48;10.70;;;4.60;;
51459;SDS011;37534;39.772;2.718;2023-04-24T11:31:34;8.35;;;3.72;;
51459;SDS011;37534;39.772;2.718;2023-04-24T11:34:15;7.53;;;4.20;;
51459;SDS011;37534;39.772;2.718;2023-04-24T11:36:47;10.25;;;4.47;;
51459;SDS011;37534;39.772;2.718;2023-04-24T11:39:13;16.90;;;7.65;;
51459;SDS011;37534;39.772;2.718;2023-04-24T11:41:40;12.27;;;6.53;;
51459;SDS011;37534;39.772;2.718;2023-04-24T11:44:06;7.57;;;3.63;;
51459;SDS011;37534;39.772;2.718;2023-04-24T11:46:33;9.68;;;5.75;;
51459;SDS011;37534;39.772;2.718;2023-04-24T11:48:59;11.40;;;5.90;;
51459;SDS011;37534;39.772;2.718;2023-04-24T11:51:27;11.32;;;3.97;;
51459;SDS011;37534;39.772;2.718;2023-04-24T11:53:53;9.30;;;6.03;;
51459;SDS011;37534;39.772;2.718;2023-04-24T11:56:24;7.45;;;4.60;;
51459;SDS011;37534;39.772;2.718;2023-04-24T11:58:52;25.13;;;15.90;;
51459;SDS011;37534;39.772;2.718;2023-04-24T12:01:21;13.07;;;7.40;;
51459;SDS011;37534;39.772;2.718;2023-04-24T12:03:49;7.15;;;4.70;;
51459;SDS011;37534;39.772;2.718;2023-04-24T12:06:16;34.55;;;22.17;;
51459;SDS011;37534;39.772;2.718;2023-04-24T12:08:42;82.63;;;58.33;;
51459;SDS011;37534;39.772;2.718;2023-04-24T12:11:11;38.22;;;25.35;;
51459;SDS011;37534;39.772;2.718;2023-04-24T12:13:40;17.17;;;7.63;;
51459;SDS011;37534;39.772;2.718;2023-04-24T12:16:06;13.20;;;9.27;;
51459;SDS011;37534;39.772;2.718;2023-04-24T12:18:32;49.65;;;30.40;;
51459;SDS011;37534;39.772;2.718;2023-04-24T12:23:46;38.90;;;21.80;;
51459;SDS011;37534;39.772;2.718;2023-04-24T12:26:15;37.50;;;23.05;;
51459;SDS011;37534;39.772;2.718;2023-04-24T12:28:42;15.93;;;9.25;;
51459;SDS011;37534;39.772;2.718;2023-04-24T12:31:11;28.95;;;15.85;;
51459;SDS011;37534;39.772;2.718;2023-04-24T12:33:36;92.18;;;55.08;;
51459;SDS011;37534;39.772;2.718;2023-04-24T12:36:03;19.33;;;12.35;;
51459;SDS011;37534;39.772;2.718;2023-04-24T12:38:30;34.83;;;22.42;;
51459;SDS011;37534;39.772;2.718;2023-04-24T12:41:02;12.23;;;5.80;;
51459;SDS011;37534;39.772;2.718;2023-04-24T12:43:29;30.88;;;17.80;;
51459;SDS011;37534;39.772;2.718;2023-04-24T12:45:55;48.22;;;24.45;;
51459;SDS011;37534;39.772;2.718;2023-04-24T12:48:20;10.13;;;5.10;;
51459;SDS011;37534;39.772;2.718;2023-04-24T12:50:47;10.80;;;5.43;;
51459;SDS011;37534;39.772;2.718;2023-04-24T12:53:13;29.52;;;17.67;;
51459;SDS011;37534;39.772;2.718;2023-04-24T12:55:40;35.97;;;20.73;;
51459;SDS011;37534;39.772;2.718;2023-04-24T12:58:05;12.88;;;4.22;;
51459;SDS011;37534;39.772;2.718;2023-04-24T13:00:31;13.98;;;4.95;;
51459;SDS011;37534;39.772;2.718;2023-04-24T13:02:56;14.30;;;6.47;;
51459;SDS011;37534;39.772;2.718;2023-04-24T13:05:22;5.60;;;3.65;;
51459;SDS011;37534;39.772;2.718;2023-04-24T13:07:47;41.97;;;23.30;;
51459;SDS011;37534;39.772;2.718;2023-04-24T13:10:13;32.88;;;22.67;;
51459;SDS011;37534;39.772;2.718;2023-04-24T13:12:39;33.35;;;20.65;;
51459;SDS011;37534;39.772;2.718;2023-04-24T13:15:05;7.25;;;3.65;;
51459;SDS011;37534;39.772;2.718;2023-04-24T13:17:31;12.90;;;3.28;;
51459;SDS011;37534;39.772;2.718;2023-04-24T13:19:58;5.57;;;3.10;;
51459;SDS011;37534;39.772;2.718;2023-04-24T13:22:23;14.75;;;5.13;;
51459;SDS011;37534;39.772;2.718;2023-04-24T13:24:50;7.22;;;3.75;;
51459;SDS011;37534;39.772;2.718;2023-04-24T13:27:16;7.40;;;3.50;;
51459;SDS011;37534;39.772;2.718;2023-04-24T13:29:42;9.77;;;3.78;;
51459;SDS011;37534;39.772;2.718;2023-04-24T13:32:08;3.72;;;2.10;;
51459;SDS011;37534;39.772;2.718;2023-04-24T13:34:34;13.32;;;3.70;;
51459;SDS011;37534;39.772;2.718;2023-04-24T13:37:00;9.27;;;3.65;;
51459;SDS011;37534;39.772;2.718;2023-04-24T13:39:26;7.68;;;2.80;;
51459;SDS011;37534;39.772;2.718;2023-04-24T13:41:52;8.07;;;3.90;;
51459;SDS011;37534;39.772;2.718;2023-04-24T13:44:21;6.60;;;3.55;;
51459;SDS011;37534;39.772;2.718;2023-04-24T13:46:48;8.63;;;3.55;;
51459;SDS011;37534;39.772;2.718;2023-04-24T13:49:15;5.13;;;2.83;;
51459;SDS011;37534;39.772;2.718;2023-04-24T13:51:41;4.70;;;2.47;;
51459;SDS011;37534;39.772;2.718;2023-04-24T13:54:07;10.25;;;3.10;;
51459;SDS011;37534;39.772;2.718;2023-04-24T13:56:33;3.75;;;2.15;;
51459;SDS011;37534;39.772;2.718;2023-04-24T13:58:59;8.32;;;2.97;;
51459;SDS011;37534;39.772;2.718;2023-04-24T14:01:24;4.18;;;2.25;;
51459;SDS011;37534;39.772;2.718;2023-04-24T14:03:50;5.47;;;2.80;;
51459;SDS011;37534;39.772;2.718;2023-04-24T14:06:20;4.30;;;2.67;;
51459;SDS011;37534;39.772;2.718;2023-04-24T14:08:46;5.00;;;2.60;;
51459;SDS011;37534;39.772;2.718;2023-04-24T14:11:12;6.80;;;3.05;;
51459;SDS011;37534;39.772;2.718;2023-04-24T14:13:39;4.75;;;2.20;;
51459;SDS011;37534;39.772;2.718;2023-04-24T14:16:06;3.70;;;2.25;;
51459;SDS011;37534;39.772;2.718;2023-04-24T14:18:32;8.85;;;3.65;;
51459;SDS011;37534;39.772;2.718;2023-04-24T14:20:58;3.13;;;2.35;;
51459;SDS011;37534;39.772;2.718;2023-04-24T14:23:24;4.78;;;2.70;;
51459;SDS011;37534;39.772;2.718;2023-04-24T14:25:49;11.85;;;5.22;;
51459;SDS011;37534;39.772;2.718;2023-04-24T14:28:17;15.20;;;10.77;;
51459;SDS011;37534;39.772;2.718;2023-04-24T14:30:44;10.27;;;6.63;;
51459;SDS011;37534;39.772;2.718;2023-04-24T14:33:09;4.55;;;2.88;;
51459;SDS011;37534;39.772;2.718;2023-04-24T14:35:35;13.13;;;4.53;;
51459;SDS011;37534;39.772;2.718;2023-04-24T14:38:01;3.90;;;2.47;;
51459;SDS011;37534;39.772;2.718;2023-04-24T14:40:27;10.20;;;3.63;;
51459;SDS011;37534;39.772;2.718;2023-04-24T14:42:53;7.47;;;3.47;;
51459;SDS011;37534;39.772;2.718;2023-04-24T14:45:19;7.25;;;3.55;;
51459;SDS011;37534;39.772;2.718;2023-04-24T14:47:44;5.35;;;2.47;;
51459;SDS011;37534;39.772;2.718;2023-04-24T14:50:10;3.60;;;1.75;;